Terminal Aerodrome Forecast
Issued by NWS Duluth, MN

Home | Current Version | Previous Version | Text Only | Print | Product List | Glossary On
Versions: 1 2 3 4 5 6 7 8 9 10 11 12 13 14 15 16 17 18 19 20 21 22 23 24 25 26 27 28 29
000
FTUS43 KDLH 212014 AAC
TAFINL
TAF AMD
KINL 212014Z 2120/2218 14010G17KT P6SM SKC
     FM220300 15006KT P6SM FEW050 WS020/18040KT
     FM220600 16005KT P6SM -SHRA SCT030
     FM220900 16004KT P6SM -SHRA BKN020
     FM221100 VRB03KT 2SM BR OVC008
     FM221300 00000KT 2SM BR OVC003
     FM221500 12004KT P6SM BKN006=

USA.gov is the U.S. government's official web portal to all federal, state and local government web resources and services.